Tropical Cyclones
[Index]
Main Index Home Page Stock Weather Photos Extreme Storms Discussion Storm News and Storm Chasing Reports Tropical Cyclones / Hurricanes / Typhoons Weather Data and Links Wild Fires / Bushfires Weather Observation Techniques Weather Picture Catalogue Tornado Pictures and Reports Stock Video Footage and DVDs for sale
Season 1977-1978 Tropical Cyclone ERNIE Track Map
Season 1977-1978 Summaries: [BoM-AU] [JTWC-AU] [JTWC-SIO] [JTWC-SPAC] [JTWC-SH]
<<- Previous TC | JTWC 1977-1978 Season | Next TC ->>

click for intensity scale information  Lat/long Grid: Show Hide

 Date Labels: Show Hide

Joint Typhoon Warning Centre Cyclone Data

Name: ERNIE
Number: 977 / 7821

15 Feb 1978 12:00 UTC to 21 Feb 1978 12:00 UTC

    date/time    lat    long     hPa   cat  kts
1978-02-15 12   11.8   168.2                  30          
1978-02-15 18   11.8   169.4                  30          
1978-02-16 00   12.0   170.5                  30          
1978-02-16 06   12.2   171.6                  30          
1978-02-16 12   12.5   172.5                  30          
1978-02-16 18   12.7   173.2                  30          
1978-02-17 00   13.0   173.8                  30          
1978-02-17 06   13.3   174.6                  35          
1978-02-17 12   13.7   175.5                  35          
1978-02-17 18   14.1   176.2            1     40          
1978-02-18 00   14.5   177.0            1     45          
1978-02-18 06   14.9   178.1            1     50          
1978-02-18 12   15.2   179.2            1     50          
1978-02-18 18   15.6   179.9W           1     50          
1978-02-19 00   16.0   179.0W           1     45          
1978-02-19 06   16.6   177.9W           1     40          
1978-02-19 12   17.3   176.9W           1     40          
1978-02-19 18   18.0   176.1W           1     40          
1978-02-20 00   18.7   175.5W           1     40          
1978-02-20 06   19.3   175.1W                 35          
1978-02-20 12   19.9   174.8W                 35          
1978-02-20 18   20.4   174.6W                 35          
1978-02-21 00   21.0   174.5W                 35          
1978-02-21 06   21.6   174.8W                             
1978-02-21 12   22.3   175.5W                             
Winds are 1-min average.

Tropical cyclone tracks developed by Michael Bath using data from the Joint Typhoon Warning Centre Best Tracks and Google Maps.


[Australian Severe Weather index] [Copyright Notice] [Email Contacts] [Search This Site] [Privacy Policy]
Document: tropical_cyclone_ernie.htm Updated: 18 September 2016